createdAt,value
2023-03-03T00:01:00.200Z,145.60
2023-03-03T00:03:29.824Z,92.45
2023-03-03T00:05:59.265Z,132.75
2023-03-03T00:08:29.231Z,102.50
2023-03-03T00:10:58.640Z,62.42
2023-03-03T00:13:33.271Z,80.82
2023-03-03T00:16:16.790Z,84.10
2023-03-03T00:18:47.983Z,124.18
2023-03-03T00:21:36.267Z,68.72
2023-03-03T00:24:18.724Z,79.63
2023-03-03T00:26:49.827Z,66.32
2023-03-03T00:29:31.514Z,101.60
2023-03-03T00:32:15.792Z,161.07
2023-03-03T00:34:45.899Z,84.22
2023-03-03T00:37:28.322Z,75.65
2023-03-03T00:40:04.144Z,96.63
2023-03-03T00:42:37.093Z,64.75
2023-03-03T00:45:21.909Z,52.55
2023-03-03T00:47:51.379Z,170.82
2023-03-03T00:50:29.578Z,153.82
2023-03-03T00:53:06.086Z,84.30
2023-03-03T00:55:37.078Z,84.25
2023-03-03T00:58:07.326Z,116.72
2023-03-03T01:00:40.296Z,93.47
2023-03-03T01:03:11.333Z,100.18
2023-03-03T01:05:41.171Z,54.50
2023-03-03T01:08:10.692Z,73.93
2023-03-03T01:10:42.951Z,64.05
2023-03-03T01:13:13.029Z,96.70
2023-03-03T01:15:45.171Z,81.05
2023-03-03T01:18:17.407Z,73.65
2023-03-03T01:20:46.776Z,131.60
2023-03-03T01:23:16.541Z,110.25
2023-03-03T01:25:46.003Z,78.57
2023-03-03T01:28:15.463Z,63.67
2023-03-03T01:30:47.508Z,103.60
2023-03-03T01:33:16.932Z,75.60
2023-03-03T01:35:47.255Z,65.05
2023-03-03T01:38:16.833Z,76.60
2023-03-03T01:40:46.262Z,78.80
2023-03-03T01:43:17.726Z,58.90
2023-03-03T01:46:28.341Z,209.88
2023-03-03T01:49:03.324Z,142.93
2023-03-03T01:51:35.533Z,50.40
2023-03-03T01:54:07.238Z,65.60
2023-03-03T01:56:36.620Z,80.28
2023-03-03T01:59:09.437Z,97.53
2023-03-03T02:01:41.837Z,99.80
2023-03-03T02:04:11.668Z,114.30
2023-03-03T02:06:44.640Z,76.80
2023-03-03T02:09:18.122Z,134.18
2023-03-03T02:11:48.604Z,84.10
2023-03-03T02:14:17.995Z,107.78
2023-03-03T02:16:50.067Z,139.45
2023-03-03T02:19:25.258Z,42.00
2023-03-03T02:21:55.087Z,62.08
2023-03-03T02:24:28.707Z,53.42
2023-03-03T02:27:00.945Z,54.65
2023-03-03T02:29:30.810Z,110.82
2023-03-03T02:32:00.456Z,62.80
2023-03-03T02:34:30.027Z,89.70
2023-03-03T02:36:59.474Z,140.73
2023-03-03T02:39:30.642Z,64.85
2023-03-03T02:42:09.033Z,113.50
2023-03-03T02:44:38.734Z,57.30
2023-03-03T02:47:08.297Z,144.18
2023-03-03T02:49:39.665Z,66.57
2023-03-03T02:52:11.656Z,75.57
2023-03-03T02:54:41.233Z,44.78
2023-03-03T02:57:13.764Z,70.82
2023-03-03T02:59:43.151Z,54.42
2023-03-03T03:02:12.628Z,54.25
2023-03-03T03:04:42.208Z,86.03
2023-03-03T03:07:11.828Z,52.97
2023-03-03T03:09:41.224Z,59.85
2023-03-03T03:12:13.266Z,151.30
2023-03-03T03:14:42.645Z,49.50
2023-03-03T03:17:12.886Z,47.13
2023-03-03T03:19:42.469Z,55.78
2023-03-03T03:22:11.938Z,66.47
2023-03-03T03:24:41.383Z,45.17
2023-03-03T03:27:13.557Z,54.00
2023-03-03T03:29:43.081Z,83.22
2023-03-03T03:32:12.851Z,71.60
2023-03-03T03:34:42.332Z,43.20
2023-03-03T03:37:11.974Z,39.25
2023-03-03T03:39:41.740Z,53.25
2023-03-03T03:42:14.226Z,59.00
2023-03-03T03:44:44.060Z,65.75
2023-03-03T03:47:13.595Z,40.65
2023-03-03T03:49:43.162Z,53.17
2023-03-03T03:52:12.576Z,44.55
2023-03-03T03:54:41.988Z,53.58
2023-03-03T03:57:14.343Z,51.30
2023-03-03T03:59:43.754Z,45.95
2023-03-03T04:02:13.268Z,44.58
2023-03-03T04:04:42.718Z,89.72
2023-03-03T04:07:12.222Z,60.45
2023-03-03T04:09:41.644Z,71.35
2023-03-03T04:12:11.814Z,125.47
2023-03-03T04:14:43.822Z,66.30
2023-03-03T04:17:19.065Z,50.15
2023-03-03T04:19:48.527Z,64.57
2023-03-03T04:22:17.948Z,51.35
2023-03-03T04:24:48.717Z,47.38
2023-03-03T04:27:18.350Z,45.03
2023-03-03T04:29:50.488Z,86.30
2023-03-03T04:32:20.460Z,61.10
2023-03-03T04:34:58.722Z,74.78
2023-03-03T04:37:37.368Z,72.35
2023-03-03T04:40:07.767Z,49.50
2023-03-03T04:42:37.363Z,55.88
2023-03-03T04:45:10.682Z,48.05
2023-03-03T04:47:40.118Z,59.83
2023-03-03T04:50:11.543Z,53.45
2023-03-03T04:52:41.438Z,46.40
2023-03-03T04:55:12.695Z,150.15
2023-03-03T04:57:42.065Z,51.78
2023-03-03T05:00:16.220Z,44.55
2023-03-03T05:02:45.709Z,49.50
2023-03-03T05:05:15.084Z,99.57
2023-03-03T05:07:44.583Z,75.22
2023-03-03T05:10:14.898Z,51.08
2023-03-03T05:12:44.367Z,83.22
2023-03-03T05:15:16.421Z,100.55
2023-03-03T05:17:45.859Z,61.75
2023-03-03T05:20:16.103Z,46.80
2023-03-03T05:22:45.499Z,50.08
2023-03-03T05:25:15.212Z,43.03
2023-03-03T05:27:44.653Z,49.45
2023-03-03T05:30:17.378Z,131.27
2023-03-03T05:32:46.915Z,53.13
2023-03-03T05:35:16.305Z,57.65
2023-03-03T05:37:47.752Z,68.07
2023-03-03T05:40:17.820Z,86.88
2023-03-03T05:42:47.346Z,69.25
2023-03-03T05:45:20.606Z,64.68
2023-03-03T05:47:50.496Z,126.95
2023-03-03T05:50:20.887Z,54.83
2023-03-03T05:52:50.951Z,61.40
2023-03-03T05:55:23.470Z,74.43
2023-03-03T05:57:52.916Z,143.55
2023-03-03T06:00:25.970Z,59.17
2023-03-03T06:02:55.446Z,99.47
2023-03-03T06:05:25.132Z,69.43
2023-03-03T06:07:54.597Z,65.68
2023-03-03T06:10:24.011Z,99.25
2023-03-03T06:12:55.126Z,109.65
2023-03-03T06:15:27.316Z,52.22
2023-03-03T06:17:56.745Z,27.88
2023-03-03T06:20:26.179Z,90.38
2023-03-03T06:22:55.671Z,63.75
2023-03-03T06:25:25.197Z,33.13
2023-03-03T06:27:54.681Z,54.80
2023-03-03T06:30:28.689Z,82.55
2023-03-03T06:32:58.199Z,108.95
2023-03-03T06:35:27.729Z,52.40
2023-03-03T06:37:57.177Z,29.92
2023-03-03T06:40:26.624Z,64.15
2023-03-03T06:42:56.112Z,65.18
2023-03-03T06:45:28.279Z,51.17
2023-03-03T06:47:58.024Z,55.33
2023-03-03T06:50:27.464Z,38.60
2023-03-03T06:53:05.126Z,33.45
2023-03-03T06:55:35.059Z,42.95
2023-03-03T06:58:04.941Z,47.05
2023-03-03T07:00:37.822Z,51.75
2023-03-03T07:03:11.645Z,48.58
2023-03-03T07:05:41.107Z,65.43
2023-03-03T07:08:16.285Z,64.88
2023-03-03T07:10:46.348Z,44.15
2023-03-03T07:13:26.406Z,55.45
2023-03-03T07:16:00.963Z,42.05
2023-03-03T07:18:38.248Z,57.08
2023-03-03T07:21:17.579Z,47.90
2023-03-03T07:23:48.505Z,50.67
2023-03-03T07:26:19.677Z,43.42
2023-03-03T07:28:55.962Z,32.20
2023-03-03T07:31:33.115Z,53.03
2023-03-03T07:34:03.650Z,66.07
2023-03-03T07:36:34.819Z,52.13
2023-03-03T07:39:06.483Z,41.10
2023-03-03T07:41:37.901Z,37.78
2023-03-03T07:44:08.683Z,46.42
2023-03-03T07:46:44.873Z,36.03
2023-03-03T07:49:25.148Z,32.28
2023-03-03T07:51:57.513Z,38.63
2023-03-03T07:54:33.537Z,38.67
2023-03-03T07:57:08.670Z,53.10
2023-03-03T07:59:40.327Z,37.08
2023-03-03T08:02:28.515Z,57.15
2023-03-03T08:04:58.119Z,37.70
2023-03-03T08:07:27.608Z,75.30
2023-03-03T08:10:00.597Z,34.30
2023-03-03T08:12:47.832Z,35.25
2023-03-03T08:15:24.439Z,42.65
2023-03-03T08:17:57.972Z,51.55
2023-03-03T08:20:47.068Z,113.88
2023-03-03T08:23:18.191Z,33.47
2023-03-03T08:25:48.071Z,69.50
2023-03-03T08:28:17.677Z,40.75
2023-03-03T08:30:47.567Z,41.67
2023-03-03T08:33:20.786Z,26.15
2023-03-03T08:35:50.944Z,29.30
2023-03-03T08:38:22.670Z,45.65
2023-03-03T08:40:53.222Z,33.42
2023-03-03T08:43:24.751Z,33.83
2023-03-03T08:45:55.866Z,45.65
2023-03-03T08:48:28.247Z,29.75
2023-03-03T08:50:57.940Z,33.72
2023-03-03T08:53:29.231Z,35.60
2023-03-03T08:55:58.791Z,30.73
2023-03-03T08:58:35.052Z,19.90
2023-03-03T09:01:07.566Z,25.65
2023-03-03T09:03:39.545Z,25.40
2023-03-03T09:06:09.167Z,49.47
2023-03-03T09:08:39.044Z,29.52
2023-03-03T09:11:13.490Z,18.88
2023-03-03T09:13:43.082Z,27.02
2023-03-03T09:16:16.327Z,43.97
2023-03-03T09:18:48.555Z,21.25
2023-03-03T09:21:24.326Z,30.13
2023-03-03T09:23:58.598Z,32.67
2023-03-03T09:26:31.401Z,26.58
2023-03-03T09:29:09.196Z,25.35
2023-03-03T09:31:42.298Z,24.80
2023-03-03T09:34:30.045Z,30.58
2023-03-03T09:37:00.247Z,21.98
2023-03-03T09:39:33.005Z,24.52
2023-03-03T09:42:18.745Z,35.25
2023-03-03T09:45:06.113Z,20.55
2023-03-03T09:47:43.722Z,21.65
2023-03-03T09:50:24.822Z,19.35
2023-03-03T09:53:04.017Z,15.45
2023-03-03T09:55:44.137Z,27.10
2023-03-03T09:58:27.543Z,16.92
2023-03-03T10:01:02.643Z,25.98
2023-03-03T10:04:09.392Z,19.30
2023-03-03T10:06:43.987Z,20.45
2023-03-03T10:09:44.080Z,23.77
2023-03-03T10:12:19.657Z,30.08
2023-03-03T10:14:59.472Z,33.83
2023-03-03T10:17:37.121Z,19.55
2023-03-03T10:20:19.420Z,22.70
2023-03-03T10:22:55.974Z,27.50
2023-03-03T10:25:32.326Z,21.67
2023-03-03T10:28:30.377Z,22.27
2023-03-03T10:31:12.150Z,20.65
2023-03-03T10:33:50.396Z,17.80
2023-03-03T10:36:30.963Z,16.70
2023-03-03T10:39:36.525Z,22.20
2023-03-03T10:42:21.289Z,23.13
2023-03-03T10:45:07.765Z,17.30
2023-03-03T10:47:49.700Z,20.80
2023-03-03T10:50:22.220Z,21.27
2023-03-03T10:52:56.124Z,19.30
2023-03-03T10:55:39.771Z,22.60
2023-03-03T10:58:22.989Z,23.60
2023-03-03T11:00:55.571Z,23.43
2023-03-03T11:03:41.861Z,25.43
2023-03-03T11:06:14.975Z,25.93
2023-03-03T11:08:47.558Z,23.03
2023-03-03T11:11:23.187Z,28.60
2023-03-03T11:13:57.763Z,28.70
2023-03-03T11:16:47.744Z,33.23
2023-03-03T11:19:41.347Z,28.90
2023-03-03T11:22:21.393Z,30.20
2023-03-03T11:25:01.407Z,28.50
2023-03-03T11:27:58.561Z,30.53
2023-03-03T11:30:37.394Z,24.80
2023-03-03T11:33:10.157Z,29.33
2023-03-03T11:35:45.828Z,31.50
2023-03-03T11:38:30.175Z,25.60
2023-03-03T11:41:02.576Z,32.63
2023-03-03T11:43:37.889Z,17.40
2023-03-03T11:46:10.459Z,27.85
2023-03-03T11:48:44.658Z,22.60
2023-03-03T11:51:17.695Z,21.97
2023-03-03T11:53:57.404Z,24.20
2023-03-03T11:56:30.840Z,26.40
2023-03-03T11:59:10.301Z,27.10
2023-03-03T12:01:44.904Z,29.50
2023-03-03T12:04:16.463Z,26.63
2023-03-03T12:06:58.699Z,33.60
2023-03-03T12:09:39.485Z,31.80
2023-03-03T12:12:10.623Z,26.43
2023-03-03T12:14:56.588Z,26.50
2023-03-03T12:17:51.966Z,25.30
2023-03-03T12:20:26.088Z,25.70
2023-03-03T12:23:07.096Z,28.33
2023-03-03T12:25:39.771Z,20.30
2023-03-03T12:28:13.014Z,28.10
2023-03-03T12:31:20.607Z,25.60
2023-03-03T12:33:58.115Z,23.17
2023-03-03T12:37:05.205Z,18.70
2023-03-03T12:39:44.077Z,21.47
2023-03-03T12:42:19.831Z,26.13
2023-03-03T12:44:54.713Z,25.13
2023-03-03T12:47:28.276Z,19.73
2023-03-03T12:50:09.107Z,21.70
2023-03-03T12:52:47.806Z,25.13
2023-03-03T12:55:25.073Z,13.57
2023-03-03T12:58:01.588Z,16.63
2023-03-03T13:00:35.776Z,19.80
2023-03-03T13:03:12.452Z,15.30
2023-03-03T13:05:54.828Z,12.30
2023-03-03T13:08:59.629Z,11.83
2023-03-03T13:11:42.890Z,9.97
2023-03-03T13:14:23.217Z,9.43
2023-03-03T13:17:07.273Z,15.23
2023-03-03T13:19:44.062Z,8.73
2023-03-03T13:22:20.233Z,9.37
2023-03-03T13:24:58.824Z,10.37
2023-03-03T13:27:30.488Z,15.40
2023-03-03T13:30:03.698Z,10.60
2023-03-03T13:32:39.358Z,15.37
2023-03-03T13:35:12.548Z,12.30
2023-03-03T13:37:46.186Z,6.50
2023-03-03T13:40:20.029Z,10.03
2023-03-03T13:42:52.047Z,4.00
2023-03-03T13:45:25.668Z,4.93
2023-03-03T13:48:03.011Z,8.13
2023-03-03T13:50:36.572Z,7.65
2023-03-03T13:53:26.084Z,4.20
2023-03-03T13:56:01.633Z,4.47
2023-03-03T13:58:38.445Z,6.80
2023-03-03T14:01:15.159Z,3.33
2023-03-03T14:04:03.272Z,12.57
2023-03-03T14:06:33.173Z,3.70
2023-03-03T14:09:35.347Z,7.70
2023-03-03T14:12:15.560Z,3.40
2023-03-03T14:14:50.868Z,7.87
2023-03-03T14:17:28.813Z,4.43
2023-03-03T14:20:03.746Z,3.40
2023-03-03T14:22:40.290Z,7.97
2023-03-03T14:25:14.819Z,3.40
2023-03-03T14:27:57.420Z,6.20
2023-03-03T14:30:40.953Z,4.93
2023-03-03T14:33:27.069Z,7.37
2023-03-03T14:36:16.000Z,4.23
2023-03-03T14:38:51.754Z,5.10
2023-03-03T14:41:39.310Z,6.13
2023-03-03T14:44:24.907Z,6.70
2023-03-03T14:47:06.024Z,6.07
2023-03-03T14:49:37.897Z,10.13
2023-03-03T14:52:21.792Z,6.00
2023-03-03T14:54:53.058Z,9.90
2023-03-03T14:57:31.288Z,11.00
2023-03-03T15:00:06.872Z,4.77
2023-03-03T15:02:40.856Z,4.35
2023-03-03T15:05:22.482Z,9.30
2023-03-03T15:07:56.710Z,5.43
2023-03-03T15:10:31.529Z,7.77
2023-03-03T15:13:29.235Z,4.67
2023-03-03T15:16:06.854Z,6.00
2023-03-03T15:18:36.323Z,7.57
2023-03-03T15:21:08.214Z,7.10
2023-03-03T15:23:46.114Z,13.00
2023-03-03T15:26:19.269Z,10.35
2023-03-03T15:28:59.345Z,13.60
2023-03-03T15:31:37.136Z,13.60
2023-03-03T15:34:24.983Z,12.20
2023-03-03T15:36:57.321Z,16.43
2023-03-03T15:39:31.984Z,8.90
2023-03-03T15:42:07.156Z,12.37
2023-03-03T15:44:50.862Z,8.37
2023-03-03T15:47:34.434Z,5.93
2023-03-03T15:50:15.095Z,6.10
2023-03-03T15:52:53.118Z,11.20
2023-03-03T15:55:31.139Z,8.20
2023-03-03T15:58:14.232Z,6.73
2023-03-03T16:00:59.474Z,11.27
2023-03-03T16:03:32.173Z,14.77
2023-03-03T16:06:06.089Z,9.10
2023-03-03T16:08:46.189Z,22.23
2023-03-03T16:11:18.748Z,11.63
2023-03-03T16:14:11.050Z,11.43
2023-03-03T16:16:48.700Z,11.60
2023-03-03T16:19:38.726Z,10.93
2023-03-03T16:22:18.758Z,15.07
2023-03-03T16:24:59.869Z,16.40
2023-03-03T16:27:32.931Z,15.50
2023-03-03T16:30:25.996Z,22.27
2023-03-03T16:33:09.100Z,14.10
2023-03-03T16:35:42.171Z,15.63
2023-03-03T16:38:15.851Z,13.10
2023-03-03T16:40:48.452Z,13.27
2023-03-03T16:43:24.476Z,15.10
2023-03-03T16:45:54.604Z,10.87
2023-03-03T16:48:30.928Z,15.00
2023-03-03T16:51:12.148Z,13.63
2023-03-03T16:53:57.384Z,9.80
2023-03-03T16:56:31.915Z,15.07
2023-03-03T16:59:21.488Z,23.93
2023-03-03T17:01:54.292Z,21.17
2023-03-03T17:04:37.774Z,14.07
2023-03-03T17:07:16.320Z,13.63
2023-03-03T17:10:19.159Z,17.73
2023-03-03T17:13:23.134Z,25.33
2023-03-03T17:16:08.543Z,24.27
2023-03-03T17:18:50.551Z,19.90
2023-03-03T17:21:31.146Z,21.40
2023-03-03T17:24:08.123Z,25.50
2023-03-03T17:26:56.230Z,22.53
2023-03-03T17:29:40.086Z,25.80
2023-03-03T17:32:19.382Z,18.70
2023-03-03T17:34:56.202Z,21.27
2023-03-03T17:37:37.350Z,30.30
2023-03-03T17:40:18.683Z,16.80
2023-03-03T17:42:53.577Z,19.30
2023-03-03T17:45:24.013Z,23.23
2023-03-03T17:48:15.027Z,20.47
2023-03-03T17:51:10.717Z,20.53
2023-03-03T17:53:55.352Z,18.67
2023-03-03T17:56:26.636Z,24.37
2023-03-03T17:59:12.107Z,13.40
2023-03-03T18:01:53.754Z,19.13
2023-03-03T18:04:42.764Z,23.40
2023-03-03T18:07:42.800Z,17.20
2023-03-03T18:10:47.920Z,17.33
2023-03-03T18:13:30.716Z,21.03
2023-03-03T18:16:12.336Z,19.60
2023-03-03T18:19:02.801Z,27.53
2023-03-03T18:21:35.421Z,20.77
2023-03-03T18:24:29.172Z,19.77
2023-03-03T18:27:16.790Z,16.27
2023-03-03T18:30:28.813Z,23.77
2023-03-03T18:33:15.074Z,14.50
2023-03-03T18:35:46.196Z,27.40
2023-03-03T18:38:41.711Z,17.93
2023-03-03T18:41:13.019Z,18.47
2023-03-03T18:44:04.662Z,34.90
2023-03-03T18:46:52.231Z,25.97
2023-03-03T18:49:21.984Z,17.40
2023-03-03T18:51:53.516Z,13.50
2023-03-03T18:54:39.847Z,16.50
2023-03-03T18:57:18.076Z,17.57
2023-03-03T19:00:15.827Z,14.17
2023-03-03T19:02:54.749Z,18.43
2023-03-03T19:05:28.738Z,27.87
2023-03-03T19:08:02.867Z,20.47
2023-03-03T19:10:59.086Z,24.90
2023-03-03T19:13:46.921Z,27.20
2023-03-03T19:16:38.463Z,31.20
2023-03-03T19:19:14.274Z,20.10
2023-03-03T19:21:44.904Z,22.77
2023-03-03T19:24:30.805Z,26.00
2023-03-03T19:27:17.708Z,15.23
2023-03-03T19:30:10.475Z,23.17
2023-03-03T19:33:06.214Z,15.70
2023-03-03T19:35:42.100Z,24.07
2023-03-03T19:38:23.169Z,32.10
2023-03-03T19:41:00.671Z,21.90
2023-03-03T19:43:38.130Z,22.43
2023-03-03T19:46:29.990Z,19.33
2023-03-03T19:49:08.763Z,23.00
2023-03-03T19:51:43.605Z,24.07
2023-03-03T19:54:21.696Z,22.80
2023-03-03T19:56:53.168Z,27.67
2023-03-03T19:59:29.706Z,34.80
2023-03-03T20:02:30.400Z,23.33
2023-03-03T20:05:07.238Z,30.43
2023-03-03T20:07:42.913Z,22.40
2023-03-03T20:10:28.557Z,31.80
2023-03-03T20:13:05.482Z,45.20
2023-03-03T20:15:44.578Z,24.20
2023-03-03T20:18:58.809Z,35.17
2023-03-03T20:21:43.913Z,22.53
2023-03-03T20:24:27.215Z,23.23
2023-03-03T20:27:00.561Z,29.50
2023-03-03T20:29:54.374Z,27.10
2023-03-03T20:32:32.001Z,36.33
2023-03-03T20:35:09.044Z,24.90
2023-03-03T20:37:48.139Z,28.13
2023-03-03T20:40:27.667Z,42.07
2023-03-03T20:43:04.992Z,30.37
2023-03-03T20:45:44.064Z,44.40
2023-03-03T20:48:23.063Z,37.67
2023-03-03T20:50:56.969Z,17.53
2023-03-03T20:53:35.280Z,20.73
2023-03-03T20:56:09.550Z,26.17
2023-03-03T20:58:49.320Z,37.67
2023-03-03T21:01:24.229Z,21.13
2023-03-03T21:03:56.284Z,36.33
2023-03-03T21:06:41.484Z,27.57
2023-03-03T21:09:25.249Z,26.27
2023-03-03T21:11:55.275Z,23.13
2023-03-03T21:14:26.183Z,33.03
2023-03-03T21:16:57.425Z,34.63
2023-03-03T21:19:29.566Z,29.83
2023-03-03T21:22:01.986Z,19.93
2023-03-03T21:24:54.370Z,22.90
2023-03-03T21:27:28.280Z,25.70
2023-03-03T21:30:13.038Z,20.10
2023-03-03T21:32:44.959Z,28.80
2023-03-03T21:35:16.061Z,23.10
2023-03-03T21:37:48.057Z,24.90
2023-03-03T21:40:23.488Z,18.63
2023-03-03T21:42:53.907Z,22.07
2023-03-03T21:45:23.827Z,25.03
2023-03-03T21:47:54.853Z,20.97
2023-03-03T21:50:24.661Z,22.10
2023-03-03T21:52:56.136Z,20.30
2023-03-03T21:55:28.111Z,16.57
2023-03-03T21:57:57.566Z,28.80
2023-03-03T22:00:27.193Z,20.87
2023-03-03T22:02:57.647Z,19.27
2023-03-03T22:05:27.718Z,31.90
2023-03-03T22:07:57.122Z,29.10
2023-03-03T22:10:29.223Z,16.63
2023-03-03T22:12:59.292Z,22.53
2023-03-03T22:15:33.365Z,20.97
2023-03-03T22:18:03.027Z,12.10
2023-03-03T22:20:32.506Z,21.03
2023-03-03T22:23:01.945Z,26.67
2023-03-03T22:25:33.912Z,20.37
2023-03-03T22:28:03.309Z,20.03
2023-03-03T22:30:32.758Z,30.93
2023-03-03T22:33:02.140Z,20.00
2023-03-03T22:35:31.597Z,31.90
2023-03-03T22:38:01.062Z,14.17
2023-03-03T22:40:30.536Z,20.00
2023-03-03T22:43:02.683Z,29.87
2023-03-03T22:45:32.112Z,26.90
2023-03-03T22:48:01.618Z,18.47
2023-03-03T22:50:31.130Z,15.53
2023-03-03T22:53:00.566Z,11.57
2023-03-03T22:55:29.991Z,26.70
2023-03-03T22:58:06.531Z,16.47
2023-03-03T23:00:38.105Z,23.00
2023-03-03T23:03:07.832Z,121.83
2023-03-03T23:05:37.381Z,16.60
2023-03-03T23:08:08.278Z,24.27
2023-03-03T23:10:38.235Z,52.43
2023-03-03T23:13:10.784Z,24.83
2023-03-03T23:15:40.346Z,25.13
2023-03-03T23:18:09.870Z,20.43
2023-03-03T23:20:39.346Z,29.93
2023-03-03T23:23:09.011Z,16.27
2023-03-03T23:25:38.444Z,11.10
2023-03-03T23:28:10.522Z,18.70
2023-03-03T23:30:40.144Z,15.33
2023-03-03T23:33:09.574Z,13.37
2023-03-03T23:35:39.116Z,14.73
2023-03-03T23:38:08.608Z,15.43
2023-03-03T23:40:37.991Z,11.33
2023-03-03T23:43:10.124Z,22.57
2023-03-03T23:45:39.566Z,19.03
2023-03-03T23:48:09.475Z,14.63
2023-03-03T23:50:39.375Z,10.48
2023-03-03T23:53:09.364Z,13.63
2023-03-03T23:55:39.007Z,10.40
2023-03-03T23:58:12.086Z,11.57
